Time;durP1;ratioP1;P1;durP2;ratioP2;P2;SDS_P1;SDS_P2;PMS_P1;PMS_P2;Temp;Humidity;BMP_temperature;BMP_pressure;BME280_temperature;BME280_humidity;BME280_pressure;Samples;Min_cycle;Max_cycle;Signal;HPM_P1;HPM_P2
2023/10/26 00:02:06;;;;;;;0.20;0.20;;;;;;;8.60;100.00;99499.50;5116123;28;20086;-56
2023/10/26 00:04:32;;;;;;;0.30;0.30;;;;;;;8.56;100.00;99499.47;5115026;28;20024;-56
2023/10/26 00:06:58;;;;;;;0.20;0.20;;;;;;;8.51;100.00;99501.09;5115872;28;20066;-56
2023/10/26 00:09:23;;;;;;;0.20;0.20;;;;;;;8.46;100.00;99507.84;5115202;28;20379;-56
2023/10/26 00:11:49;;;;;;;0.30;0.30;;;;;;;8.48;100.00;99511.31;5115108;28;20540;-57
2023/10/26 00:14:15;;;;;;;0.20;0.20;;;;;;;8.45;100.00;99515.50;5115736;28;20031;-57
2023/10/26 00:16:40;;;;;;;0.30;0.30;;;;;;;8.48;100.00;99521.59;5115900;28;20028;-57
2023/10/26 00:19:05;;;;;;;0.30;0.30;;;;;;;8.45;100.00;99525.78;5115130;28;20029;-56
2023/10/26 00:21:31;;;;;;;0.22;0.22;;;;;;;8.50;100.00;99529.31;5115423;28;20030;-56
2023/10/26 00:23:56;;;;;;;0.30;0.30;;;;;;;8.48;100.00;99531.88;5115566;28;20379;-56
2023/10/26 00:26:21;;;;;;;0.20;0.20;;;;;;;8.47;100.00;99540.41;5114682;28;20023;-57
2023/10/26 00:28:47;;;;;;;0.30;0.30;;;;;;;8.49;100.00;99538.69;5115652;28;20387;-56
2023/10/26 00:31:12;;;;;;;0.30;0.30;;;;;;;8.53;100.00;99535.38;5115319;28;20034;-57
2023/10/26 00:33:37;;;;;;;0.20;0.20;;;;;;;8.50;100.00;99532.75;5111614;28;20032;-57
2023/10/26 00:36:03;;;;;;;0.20;0.20;;;;;;;8.47;100.00;99542.97;5094975;28;20035;-56
2023/10/26 00:38:28;;;;;;;0.20;0.20;;;;;;;8.49;100.00;99535.28;5094549;28;20051;-56
2023/10/26 00:40:53;;;;;;;0.20;0.20;;;;;;;8.52;100.00;99538.78;5094160;28;20044;-56
2023/10/26 00:43:21;;;;;;;0.20;0.20;;;;;;;8.46;100.00;99553.22;5094909;28;20028;-56
2023/10/26 00:45:49;;;;;;;0.30;0.30;;;;;;;8.47;100.00;99549.78;5094846;28;20047;-56
2023/10/26 00:48:14;;;;;;;0.20;0.20;;;;;;;8.44;100.00;99550.56;5093913;28;20024;-57
2023/10/26 00:50:41;;;;;;;0.30;0.30;;;;;;;8.42;100.00;99552.25;5094778;28;20032;-56
2023/10/26 00:53:07;;;;;;;0.30;0.30;;;;;;;8.43;100.00;99558.25;5094571;28;20475;-56
2023/10/26 00:55:32;;;;;;;0.30;0.30;;;;;;;8.41;100.00;99555.66;5093580;28;20031;-56
2023/10/26 00:57:58;;;;;;;0.30;0.30;;;;;;;8.40;100.00;99556.50;5094551;28;20031;-56
2023/10/26 01:00:26;;;;;;;0.20;0.20;;;;;;;8.40;100.00;99570.22;5094228;28;20035;-56
2023/10/26 01:02:51;;;;;;;;;;;;;;;8.53;100.00;99565.31;5094824;28;20439;-56
2023/10/26 01:05:16;;;;;;;0.20;0.20;;;;;;;8.40;100.00;99561.63;5094002;28;19966;-56
2023/10/26 01:07:42;;;;;;;0.30;0.30;;;;;;;8.40;100.00;99559.94;5093894;28;20509;-56
2023/10/26 01:10:07;;;;;;;0.20;0.20;;;;;;;8.36;100.00;99563.28;5094494;28;20024;-57
2023/10/26 01:12:33;;;;;;;0.30;0.30;;;;;;;8.34;100.00;99561.50;5094253;28;20024;-56
2023/10/26 01:14:59;;;;;;;0.20;0.20;;;;;;;8.33;100.00;99567.50;5093644;28;20103;-56
2023/10/26 01:17:24;;;;;;;0.20;0.20;;;;;;;8.31;100.00;99569.16;5094043;28;20468;-56
2023/10/26 01:19:50;;;;;;;0.20;0.20;;;;;;;8.32;100.00;99570.91;5093560;28;20032;-56
2023/10/26 01:22:15;;;;;;;0.30;0.30;;;;;;;8.30;100.00;99572.56;5092897;28;20027;-56
2023/10/26 01:24:40;;;;;;;0.30;0.30;;;;;;;8.27;100.00;99575.09;5094280;28;20024;-56
2023/10/26 01:27:06;;;;;;;0.30;0.30;;;;;;;8.24;100.00;99571.63;5093765;28;20042;-56
2023/10/26 01:29:32;;;;;;;0.20;0.20;;;;;;;8.23;100.00;99576.72;5093015;28;20031;-57
2023/10/26 01:31:58;;;;;;;0.30;0.30;;;;;;;8.20;100.00;99569.84;5093972;28;20020;-56
2023/10/26 01:34:23;;;;;;;0.25;0.25;;;;;;;8.21;100.00;99569.00;5093666;28;20027;-56
2023/10/26 01:36:49;;;;;;;0.20;0.20;;;;;;;8.20;100.00;99568.97;5092983;28;20089;-56
2023/10/26 01:39:18;;;;;;;0.20;0.20;;;;;;;8.10;100.00;99575.63;5093665;28;20078;-56
2023/10/26 01:41:43;;;;;;;0.30;0.30;;;;;;;8.07;100.00;99566.19;5093576;28;20422;-56
2023/10/26 01:44:09;;;;;;;0.22;0.22;;;;;;;8.02;100.00;99564.38;5093079;28;20024;-56
2023/10/26 01:46:34;;;;;;;0.30;0.30;;;;;;;7.93;100.00;99564.16;5093525;28;20070;-56
2023/10/26 01:49:02;;;;;;;0.30;0.30;;;;;;;7.85;100.00;99570.03;5093631;28;20066;-56
2023/10/26 01:51:28;;;;;;;0.20;0.20;;;;;;;7.76;100.00;99564.72;5092465;28;20032;-57
2023/10/26 01:53:53;;;;;;;0.30;0.30;;;;;;;7.70;100.00;99570.56;5093783;28;20022;-56
2023/10/26 01:56:19;;;;;;;0.30;0.30;;;;;;;7.67;100.00;99567.06;5093463;28;20430;-57
2023/10/26 01:58:45;;;;;;;0.20;0.20;;;;;;;7.60;100.00;99570.34;5092885;28;20020;-57
2023/10/26 02:01:10;;;;;;;0.20;0.20;;;;;;;7.51;100.00;99571.88;5093212;28;20417;-57
2023/10/26 02:03:35;;;;;;;0.30;0.30;;;;;;;7.50;100.00;99567.59;5093550;28;20031;-56
2023/10/26 02:06:02;;;;;;;0.28;0.28;;;;;;;7.41;100.00;99562.25;5092421;28;20024;-57
2023/10/26 02:08:28;;;;;;;0.20;0.20;;;;;;;7.40;100.00;99575.94;5092915;28;20115;-56
2023/10/26 02:10:53;;;;;;;0.30;0.30;;;;;;;7.40;100.00;99576.78;5092471;28;20062;-56
2023/10/26 02:13:18;;;;;;;0.30;0.30;;;;;;;7.38;100.00;99562.19;5093138;28;20024;-56
2023/10/26 02:15:44;;;;;;;0.30;0.30;;;;;;;7.36;100.00;99558.72;5093476;28;20024;-56
2023/10/26 02:18:09;;;;;;;0.20;0.20;;;;;;;7.33;100.00;99559.53;5092344;28;20380;-56
2023/10/26 02:20:34;;;;;;;0.30;0.30;;;;;;;7.30;100.00;99556.06;5093042;28;20028;-56
2023/10/26 02:23:00;;;;;;;0.30;0.30;;;;;;;7.31;100.00;99560.31;5093392;28;20484;-56
2023/10/26 02:25:26;;;;;;;0.30;0.30;;;;;;;7.30;100.00;99554.34;5092150;28;20024;-56
2023/10/26 02:27:51;;;;;;;0.20;0.20;;;;;;;7.30;100.00;99558.63;5093172;28;20085;-56
2023/10/26 02:30:16;;;;;;;0.30;0.30;;;;;;;7.19;100.00;99563.50;5092873;28;20054;-57
2023/10/26 02:32:42;;;;;;;0.30;0.30;;;;;;;7.14;100.00;99560.84;5092221;28;20506;-56
2023/10/26 02:35:07;;;;;;;0.28;0.28;;;;;;;7.17;100.00;99560.03;5092926;28;20028;-56
2023/10/26 02:37:38;;;;;;;0.30;0.30;;;;;;;7.12;100.00;99556.50;5092813;28;20032;-57
2023/10/26 02:40:05;;;;;;;0.30;0.30;;;;;;;7.08;100.00;99553.00;5092420;28;20028;-56
2023/10/26 02:42:30;;;;;;;0.30;0.30;;;;;;;7.11;100.00;99558.19;5092579;28;20101;-56
2023/10/26 02:44:57;;;;;;;0.20;0.20;;;;;;;7.08;100.00;99556.41;5092823;28;20039;-56
2023/10/26 02:47:23;;;;;;;0.20;0.20;;;;;;;7.08;100.00;99553.00;5091751;28;20024;-56
2023/10/26 02:49:49;;;;;;;0.30;0.30;;;;;;;7.02;100.00;99553.75;5092883;28;20511;-56
2023/10/26 02:52:14;;;;;;;0.20;0.20;;;;;;;6.95;100.00;99556.13;5092409;28;20060;-56
2023/10/26 02:54:39;;;;;;;0.30;0.30;;;;;;;6.88;100.00;99555.97;5092252;28;20050;-56
2023/10/26 02:57:05;;;;;;;0.30;0.30;;;;;;;6.91;100.00;99556.03;5092949;28;20032;-56
2023/10/26 02:59:30;;;;;;;0.30;0.30;;;;;;;6.95;100.00;99556.13;5092700;28;20039;-56
2023/10/26 03:01:56;;;;;;;0.30;0.30;;;;;;;6.88;100.00;99562.78;5091885;28;20526;-56
2023/10/26 03:04:21;;;;;;;0.30;0.30;;;;;;;6.89;100.00;99565.41;5092347;28;20028;-57
2023/10/26 03:06:46;;;;;;;0.30;0.30;;;;;;;6.82;100.00;99565.22;5092887;28;20371;-56
2023/10/26 03:09:13;;;;;;;0.30;0.30;;;;;;;6.70;100.00;99555.50;5091807;28;20028;-56
2023/10/26 03:11:38;;;;;;;0.30;0.30;;;;;;;6.68;100.00;99552.06;5092728;28;20053;-56
2023/10/26 03:14:04;;;;;;;0.30;0.30;;;;;;;6.47;100.00;99553.28;5092143;28;20021;-56
2023/10/26 03:16:29;;;;;;;0.30;0.30;;;;;;;6.44;100.00;99542.94;5092381;28;20497;-56
2023/10/26 03:18:54;;;;;;;0.30;0.30;;;;;;;6.43;100.00;99547.19;5092472;28;20120;-56
2023/10/26 03:21:20;;;;;;;0.20;0.20;;;;;;;6.47;100.00;99547.25;5091584;28;20082;-56
2023/10/26 03:23:52;;;;;;;0.30;0.30;;;;;;;6.38;100.00;99553.03;5092692;28;20463;-56
2023/10/26 03:26:20;;;;;;;0.30;0.30;;;;;;;6.37;100.00;99557.28;5092209;28;20020;-56
2023/10/26 03:28:48;;;;;;;0.30;0.30;;;;;;;6.35;100.00;99550.38;5091748;28;20154;-56
2023/10/26 03:31:14;;;;;;;0.30;0.30;;;;;;;6.30;100.00;99554.50;5092101;28;20053;-56
2023/10/26 03:33:39;;;;;;;0.30;0.30;;;;;;;6.21;100.00;99556.03;5092374;28;20043;-56
2023/10/26 03:36:12;;;;;;;0.22;0.22;;;;;;;6.24;100.00;99560.34;5091897;28;20039;-56
2023/10/26 03:38:38;;;;;;;0.30;0.30;;;;;;;6.24;100.00;99557.78;5092459;28;20031;-56
2023/10/26 03:41:04;;;;;;;0.30;0.30;;;;;;;6.21;100.00;99553.47;5092310;28;20040;-56
2023/10/26 03:43:29;;;;;;;0.30;0.30;;;;;;;6.19;100.00;99552.53;5092791;28;20028;-56
2023/10/26 03:45:54;;;;;;;0.30;0.30;;;;;;;6.16;100.00;99547.34;5095883;28;20030;-56
2023/10/26 03:48:20;;;;;;;0.28;0.28;;;;;;;6.09;100.00;99546.34;5095826;28;20023;-55
2023/10/26 03:50:45;;;;;;;0.30;0.30;;;;;;;6.05;100.00;99543.66;5095334;28;20020;-56
2023/10/26 03:53:10;;;;;;;0.30;0.30;;;;;;;6.06;100.00;99547.94;5095653;28;20024;-56
2023/10/26 03:55:35;;;;;;;0.20;0.20;;;;;;;6.00;100.00;99540.94;5095660;28;20070;-56
2023/10/26 03:58:01;;;;;;;0.30;0.30;;;;;;;6.00;100.00;99540.09;5095076;28;20666;-56
2023/10/26 04:00:26;;;;;;;0.30;0.30;;;;;;;5.93;100.00;99534.78;5095393;28;20058;-56
2023/10/26 04:02:51;;;;;;;0.20;0.20;;;;;;;5.91;100.00;99526.22;5095882;28;20024;-56
2023/10/26 04:05:17;;;;;;;0.30;0.30;;;;;;;5.91;100.00;99526.22;5094730;28;20074;-56
2023/10/26 04:07:42;;;;;;;0.30;0.30;;;;;;;5.92;100.00;99525.38;5095731;28;20539;-56
2023/10/26 04:10:08;;;;;;;0.30;0.30;;;;;;;5.94;100.00;99528.00;5095639;28;20024;-56
2023/10/26 04:12:34;;;;;;;0.30;0.30;;;;;;;5.83;100.00;99527.69;5094414;28;20028;-56
2023/10/26 04:14:59;;;;;;;0.30;0.30;;;;;;;5.87;100.00;99524.38;5095371;28;20456;-56
2023/10/26 04:17:25;;;;;;;0.30;0.30;;;;;;;5.84;100.00;99524.31;5094576;28;20056;-55
2023/10/26 04:19:50;;;;;;;0.30;0.30;;;;;;;5.87;100.00;99519.25;5095200;28;20434;-56
2023/10/26 04:22:15;;;;;;;0.30;0.30;;;;;;;5.96;100.00;99528.03;5095268;28;20025;-56
2023/10/26 04:24:41;;;;;;;0.30;0.30;;;;;;;5.99;100.00;99523.91;5094671;28;20059;-56
2023/10/26 04:27:06;;;;;;;0.30;0.30;;;;;;;6.05;100.00;99524.03;5095153;28;20060;-56
2023/10/26 04:29:31;;;;;;;0.60;0.60;;;;;;;6.14;100.00;99530.25;5094930;28;20494;-56
2023/10/26 04:31:57;;;;;;;0.73;0.73;;;;;;;6.24;100.00;99525.38;5094597;28;20040;-55
2023/10/26 04:34:22;;;;;;;0.75;0.75;;;;;;;6.32;100.00;99523.03;5094998;28;20036;-56
2023/10/26 04:36:48;;;;;;;0.88;0.88;;;;;;;6.33;100.00;99521.34;5095188;28;20108;-56
2023/10/26 04:39:15;;;;;;;1.60;1.33;;;;;;;6.32;100.00;99525.59;5094010;28;20032;-55
2023/10/26 04:41:40;;;;;;;1.73;1.30;;;;;;;6.35;100.00;99517.13;5094758;28;20047;-56
2023/10/26 04:44:06;;;;;;;1.10;0.93;;;;;;;6.31;100.00;99520.44;5094850;28;20027;-55
2023/10/26 04:46:32;;;;;;;0.80;0.80;;;;;;;6.28;100.00;99513.53;5093710;28;20395;-56
2023/10/26 04:48:57;;;;;;;0.50;0.50;;;;;;;6.31;100.00;99518.72;5094940;28;20081;-56
2023/10/26 04:51:22;;;;;;;0.70;0.70;;;;;;;6.26;100.00;99513.50;5094638;28;20056;-56
2023/10/26 04:53:49;;;;;;;0.80;0.60;;;;;;;6.24;100.00;99519.41;5093799;28;20107;-56
2023/10/26 04:56:14;;;;;;;0.40;0.40;;;;;;;6.30;100.00;99522.13;5093436;28;20382;-56
2023/10/26 04:58:39;;;;;;;0.50;0.50;;;;;;;6.32;100.00;99520.47;5094405;28;20020;-56
2023/10/26 05:01:05;;;;;;;0.40;0.40;;;;;;;6.17;100.00;99522.63;5093770;28;20028;-56
2023/10/26 05:03:31;;;;;;;0.50;0.50;;;;;;;6.12;100.00;99519.09;5094389;28;20099;-56
2023/10/26 05:05:56;;;;;;;0.50;0.50;;;;;;;6.06;100.00;99519.81;5094585;28;20460;-55
2023/10/26 05:08:21;;;;;;;0.57;0.57;;;;;;;6.01;100.00;99516.25;5093437;28;20035;-56
2023/10/26 05:10:47;;;;;;;0.65;0.65;;;;;;;6.00;100.00;99522.19;5094376;28;20103;-57
2023/10/26 05:13:12;;;;;;;0.40;0.40;;;;;;;5.95;100.00;99516.91;5094109;28;20107;-56
2023/10/26 05:15:37;;;;;;;0.45;0.45;;;;;;;5.97;100.00;99517.81;5093480;28;20353;-56
2023/10/26 05:18:03;;;;;;;0.32;0.32;;;;;;;5.92;100.00;99511.72;5094404;28;20111;-56
2023/10/26 05:20:30;;;;;;;0.40;0.40;;;;;;;5.88;100.00;99513.31;5094020;28;20017;-56
2023/10/26 05:22:56;;;;;;;0.40;0.40;;;;;;;5.84;100.00;99503.84;5093548;28;20028;-56
2023/10/26 05:25:21;;;;;;;0.40;0.40;;;;;;;5.89;100.00;99507.41;5093718;28;20024;-56
2023/10/26 05:27:46;;;;;;;0.25;0.25;;;;;;;5.82;100.00;99513.16;5093305;28;20099;-56
2023/10/26 05:30:12;;;;;;;0.30;0.30;;;;;;;5.75;100.00;99513.84;5093582;28;20024;-56
2023/10/26 05:32:38;;;;;;;0.40;0.40;;;;;;;5.83;100.00;99514.91;5094104;28;20046;-56
2023/10/26 05:35:05;;;;;;;0.50;0.50;;;;;;;5.79;100.00;99513.09;5093241;28;20020;-56
2023/10/26 05:37:31;;;;;;;0.30;0.30;;;;;;;5.85;100.00;99513.25;5093709;28;20051;-56
2023/10/26 05:39:56;;;;;;;0.40;0.40;;;;;;;5.92;100.00;99516.84;5093709;28;20044;-55
2023/10/26 05:42:21;;;;;;;0.40;0.40;;;;;;;6.02;100.00;99518.00;5092551;28;20062;-56
2023/10/26 05:44:47;;;;;;;0.38;0.38;;;;;;;6.03;100.00;99512.91;5093657;28;20028;-56
2023/10/26 05:47:12;;;;;;;0.40;0.40;;;;;;;6.02;100.00;99511.19;5093313;28;20076;-56
2023/10/26 05:49:37;;;;;;;0.43;0.43;;;;;;;6.05;100.00;99503.56;5093082;28;20051;-56
2023/10/26 05:52:03;;;;;;;0.60;0.60;;;;;;;6.04;100.00;99506.09;5093492;28;20036;-56
2023/10/26 05:54:29;;;;;;;0.40;0.40;;;;;;;6.12;100.00;99509.75;5093351;28;20028;-56
2023/10/26 05:56:54;;;;;;;0.38;0.38;;;;;;;6.16;100.00;99518.34;5092766;28;20379;-56
2023/10/26 05:59:20;;;;;;;0.40;0.40;;;;;;;6.18;100.00;99507.31;5093086;28;20024;-56
2023/10/26 06:01:45;;;;;;;0.30;0.30;;;;;;;6.22;100.00;99509.16;5093624;28;20360;-56
2023/10/26 06:04:10;;;;;;;0.40;0.40;;;;;;;6.17;100.00;99504.72;5092474;28;20391;-56
2023/10/26 06:06:36;;;;;;;0.40;0.40;;;;;;;6.16;100.00;99496.19;5093085;28;20032;-56
2023/10/26 06:09:01;;;;;;;0.50;0.50;;;;;;;6.13;100.00;99483.31;5093536;28;20022;-56
2023/10/26 06:11:27;;;;;;;0.40;0.40;;;;;;;6.14;100.00;99487.59;5092258;28;20024;-56
2023/10/26 06:13:52;;;;;;;0.40;0.40;;;;;;;6.13;100.00;99490.13;5093373;28;20036;-56
2023/10/26 06:16:17;;;;;;;0.60;0.60;;;;;;;6.20;100.00;99497.16;5093080;28;20028;-56
2023/10/26 06:18:43;;;;;;;0.50;0.50;;;;;;;6.24;100.00;99499.81;5092607;28;20020;-56
2023/10/26 06:21:08;;;;;;;0.95;0.90;;;;;;;6.20;100.00;99502.25;5093273;28;20028;-56
2023/10/26 06:23:34;;;;;;;0.50;0.50;;;;;;;6.23;100.00;99489.53;5093187;28;20119;-56
2023/10/26 06:26:01;;;;;;;0.70;0.70;;;;;;;6.23;100.00;99492.94;5092297;28;20063;-56
2023/10/26 06:28:26;;;;;;;0.60;0.60;;;;;;;6.20;100.00;99498.00;5092539;28;20464;-56
2023/10/26 06:30:52;;;;;;;0.70;0.70;;;;;;;6.18;100.00;99504.75;5093218;28;20066;-56
2023/10/26 06:33:17;;;;;;;0.45;0.45;;;;;;;6.18;100.00;99499.63;5092170;28;20016;-54
2023/10/26 06:35:43;;;;;;;0.40;0.40;;;;;;;6.23;100.00;99492.09;5093001;28;20073;-56
2023/10/26 06:38:08;;;;;;;0.40;0.40;;;;;;;6.30;100.00;99495.66;5092459;28;20064;-56
2023/10/26 06:40:33;;;;;;;0.43;0.43;;;;;;;6.31;100.00;99505.09;5092341;28;20035;-55
2023/10/26 06:43:02;;;;;;;0.30;0.30;;;;;;;6.36;100.00;99508.63;5092703;28;20391;-55
2023/10/26 06:45:27;;;;;;;0.40;0.40;;;;;;;6.41;100.00;99505.34;5091943;28;20025;-56
2023/10/26 06:47:52;;;;;;;0.95;0.95;;;;;;;6.33;100.00;99499.19;5092961;28;20040;-56
2023/10/26 06:50:17;;;;;;;0.40;0.40;;;;;;;6.40;100.00;99500.19;5092598;28;20520;-56
2023/10/26 06:52:43;;;;;;;0.60;0.60;;;;;;;6.41;100.00;99509.59;5092042;28;20032;-56
2023/10/26 06:55:14;;;;;;;1.10;1.00;;;;;;;6.41;100.00;99507.91;5092911;28;20031;-55
2023/10/26 06:57:40;;;;;;;1.10;1.00;;;;;;;6.41;100.00;99510.47;5092757;28;20024;-56
2023/10/26 07:00:06;;;;;;;1.20;1.10;;;;;;;6.39;100.00;99507.00;5092162;28;20043;-55
2023/10/26 07:02:31;;;;;;;1.20;1.10;;;;;;;6.32;100.00;99512.78;5092325;28;20380;-55
2023/10/26 07:04:57;;;;;;;0.93;0.83;;;;;;;6.31;100.00;99510.19;5092696;28;20024;-55
2023/10/26 07:07:22;;;;;;;0.73;0.73;;;;;;;6.30;100.00;99513.56;5091768;28;20035;-55
2023/10/26 07:09:47;;;;;;;0.70;0.70;;;;;;;6.28;100.00;99505.88;5092644;28;20429;-54
2023/10/26 07:12:13;;;;;;;0.70;0.70;;;;;;;6.33;100.00;99511.13;5092282;28;20035;-56
2023/10/26 07:14:40;;;;;;;0.70;0.70;;;;;;;6.33;100.00;99499.19;5091917;28;20063;-53
2023/10/26 07:17:05;;;;;;;0.85;0.85;;;;;;;6.30;100.00;99505.91;5092554;28;20486;-55
2023/10/26 07:19:31;;;;;;;0.30;0.30;;;;;;;6.43;100.00;99500.28;5095339;28;20055;-53
2023/10/26 07:21:56;;;;;;;0.40;0.40;;;;;;;6.42;100.00;99496.84;5095947;28;20052;-55
2023/10/26 07:24:22;;;;;;;0.60;0.60;;;;;;;6.48;100.00;99495.25;5096183;28;20375;-55
2023/10/26 07:26:49;;;;;;;0.60;0.60;;;;;;;6.51;100.00;99493.66;5096251;28;20095;-56
2023/10/26 07:29:14;;;;;;;0.90;0.90;;;;;;;6.40;100.00;99490.84;5095545;28;20020;-56
2023/10/26 07:31:40;;;;;;;0.50;0.50;;;;;;;6.56;100.00;99491.19;5096197;28;20028;-56
2023/10/26 07:34:05;;;;;;;0.77;0.77;;;;;;;6.54;100.00;99486.03;5096287;28;20479;-56
2023/10/26 07:36:31;;;;;;;0.70;0.70;;;;;;;6.49;100.00;99485.03;5095262;28;20024;-56
2023/10/26 07:38:58;;;;;;;0.40;0.40;;;;;;;6.64;100.00;99487.13;5095952;28;20035;-56
2023/10/26 07:41:25;;;;;;;0.50;0.50;;;;;;;6.70;100.00;99489.81;5094738;28;20068;-55
2023/10/26 07:43:51;;;;;;;1.25;1.15;;;;;;;6.59;100.00;99491.25;5101520;28;20035;-51
2023/10/26 07:46:16;;;;;;;0.95;0.95;;;;;;;6.53;100.00;99486.88;5095824;28;20024;-55
2023/10/26 07:48:41;;;;;;;0.60;0.60;;;;;;;6.59;100.00;99491.25;5095257;28;20090;-56
2023/10/26 07:51:06;;;;;;;0.95;0.93;;;;;;;6.59;100.00;99497.25;5095997;28;20107;-56
2023/10/26 07:53:32;;;;;;;1.95;1.75;;;;;;;6.55;100.00;99499.72;5095573;28;20032;-56
2023/10/26 07:55:57;;;;;;;0.30;0.30;;;;;;;6.94;100.00;99513.41;5095040;28;20020;-55
2023/10/26 07:58:24;;;;;;;1.20;1.10;;;;;;;6.72;100.00;99513.75;5095670;28;20034;-56
2023/10/26 08:00:50;;;;;;;0.80;0.80;;;;;;;6.88;100.00;99520.13;5096024;28;20032;-56
2023/10/26 08:03:15;;;;;;;0.98;0.98;;;;;;;6.77;100.00;99521.56;5094573;28;20032;-54
2023/10/26 08:05:40;;;;;;;1.20;1.10;;;;;;;6.70;100.00;99519.66;5095468;28;20030;-55
2023/10/26 08:08:06;;;;;;;1.15;1.05;;;;;;;6.77;100.00;99525.81;5095780;28;20024;-56
2023/10/26 08:10:36;;;;;;;0.88;0.88;;;;;;;6.74;100.00;99524.06;5094415;28;20023;-56
2023/10/26 08:13:03;;;;;;;1.42;1.33;;;;;;;6.72;100.00;99526.56;5095734;28;20016;-56
2023/10/26 08:15:28;;;;;;;1.20;1.10;;;;;;;6.78;100.00;99524.97;5095122;28;20366;-55
2023/10/26 08:17:53;;;;;;;0.85;0.85;;;;;;;6.78;100.00;99523.28;5094724;28;20503;-54
2023/10/26 08:20:19;;;;;;;1.33;1.20;;;;;;;6.84;100.00;99523.44;5095043;28;20024;-56
2023/10/26 08:22:44;;;;;;;0.70;0.70;;;;;;;6.99;100.00;99528.03;5095370;28;20032;-56
2023/10/26 08:25:10;;;;;;;0.90;0.90;;;;;;;7.06;100.00;99527.34;5094042;28;20050;-55
2023/10/26 08:27:39;;;;;;;1.20;1.10;;;;;;;7.04;100.00;99533.28;5095374;28;20032;-54
2023/10/26 08:30:05;;;;;;;1.30;1.20;;;;;;;7.03;100.00;99534.09;5095082;28;20024;-54
2023/10/26 08:32:30;;;;;;;1.30;1.20;;;;;;;7.03;100.00;99539.22;5094085;28;20111;-55
2023/10/26 08:34:56;;;;;;;0.50;0.50;;;;;;;7.10;100.00;99543.63;5095214;28;20107;-55
2023/10/26 08:37:21;;;;;;;1.10;1.00;;;;;;;7.11;100.00;99532.56;5094704;28;20051;-56
2023/10/26 08:39:47;;;;;;;0.57;0.57;;;;;;;7.17;100.00;99537.84;5094261;28;20028;-55
2023/10/26 08:42:12;;;;;;;0.70;0.70;;;;;;;7.22;100.00;99538.81;5094402;28;20135;-56
2023/10/26 08:44:39;;;;;;;0.43;0.43;;;;;;;7.35;100.00;99533.97;5094388;28;20035;-55
2023/10/26 08:47:05;;;;;;;0.30;0.30;;;;;;;7.50;100.00;99536.84;5094835;28;20027;-56
2023/10/26 08:49:32;;;;;;;0.40;0.40;;;;;;;7.61;100.00;99536.19;5094642;28;20024;-56
2023/10/26 08:52:00;;;;;;;0.40;0.40;;;;;;;7.61;100.00;99538.75;5094159;28;20043;-53
2023/10/26 08:54:26;;;;;;;0.30;0.30;;;;;;;7.68;100.00;99527.78;5094308;28;20367;-55
2023/10/26 08:56:52;;;;;;;0.40;0.40;;;;;;;7.66;100.00;99526.91;5094828;28;20031;-56
2023/10/26 08:59:18;;;;;;;0.80;0.80;;;;;;;7.65;100.00;99535.41;5093741;28;20016;-55
2023/10/26 09:01:46;;;;;;;0.60;0.60;;;;;;;7.74;100.00;99540.72;5094705;28;20059;-56
2023/10/26 09:04:12;;;;;;;0.68;0.68;;;;;;;8.00;100.00;99535.25;5094239;28;20376;-55
2023/10/26 09:06:47;;;;;;;0.70;0.70;;;;;;;7.84;100.00;99531.53;5093620;28;20056;-55
2023/10/26 09:09:13;;;;;;;0.60;0.60;;;;;;;7.68;100.00;99520.09;5094337;28;20051;-55
2023/10/26 09:11:39;;;;;;;0.75;0.75;;;;;;;7.60;100.00;99516.50;5094468;28;20044;-56
2023/10/26 09:14:17;;;;;;;0.80;0.80;;;;;;;7.65;100.00;99520.03;5093657;28;20361;-56
2023/10/26 09:16:47;;;;;;;0.50;0.50;;;;;;;8.01;100.00;99524.16;5094235;28;20031;-55
2023/10/26 09:19:17;;;;;;;1.77;1.67;;;;;;;8.28;100.00;99525.50;5093884;28;20020;-56
2023/10/26 09:21:56;;;;;;;0.30;0.30;;;;;;;8.36;100.00;99521.34;5093571;28;20115;-56
2023/10/26 09:24:24;;;;;;;0.40;0.40;;;;;;;8.40;100.00;99518.88;5093966;28;20031;-56
2023/10/26 09:26:54;;;;;;;0.30;0.30;;;;;;;8.55;100.00;99517.41;5093392;28;20105;-56
2023/10/26 09:29:21;;;;;;;0.30;0.30;;;;;;;8.26;100.00;99519.44;5093811;28;20028;-56
2023/10/26 09:31:56;;;;;;;0.30;0.30;;;;;;;8.41;100.00;99506.88;5093894;28;20028;-56
2023/10/26 09:34:23;;;;;;;0.43;0.43;;;;;;;8.41;100.00;99514.59;5092791;28;20391;-55
2023/10/26 09:37:04;;;;;;;0.30;0.30;;;;;;;8.57;100.00;99515.72;5094004;28;20027;-56
2023/10/26 09:39:35;;;;;;;0.30;0.30;;;;;;;8.51;100.00;99518.22;5093620;28;20038;-56
2023/10/26 09:42:01;;;;;;;0.30;0.30;;;;;;;8.50;100.00;99514.75;5092297;28;20117;-56
2023/10/26 09:44:30;;;;;;;0.30;0.30;;;;;;;8.54;100.00;99505.41;5093231;28;20028;-56
2023/10/26 09:46:57;;;;;;;0.28;0.28;;;;;;;8.47;100.00;99506.13;5093742;28;20369;-55
2023/10/26 09:49:24;;;;;;;0.30;0.30;;;;;;;8.38;100.00;99506.84;5092631;28;20035;-55
2023/10/26 09:51:50;;;;;;;0.25;0.25;;;;;;;8.44;100.00;99503.50;5093699;28;20040;-55
2023/10/26 09:54:18;;;;;;;0.30;0.30;;;;;;;8.24;100.00;99509.16;5093417;28;20048;-55
2023/10/26 09:56:59;;;;;;;0.30;0.30;;;;;;;8.32;100.00;99504.16;5092500;28;20107;-56
2023/10/26 09:59:25;;;;;;;0.25;0.25;;;;;;;8.14;100.00;99505.56;5093081;28;20494;-56
2023/10/26 10:01:51;;;;;;;0.20;0.20;;;;;;;8.07;100.00;99511.44;5093518;28;20024;-56
2023/10/26 10:04:19;;;;;;;0.22;0.22;;;;;;;8.07;100.00;99503.75;5092444;28;20349;-56
2023/10/26 10:06:58;;;;;;;0.20;0.20;;;;;;;8.14;100.00;99503.00;5093070;28;20024;-56
2023/10/26 10:09:27;;;;;;;0.30;0.30;;;;;;;8.34;100.00;99497.34;5092497;28;20024;-56
2023/10/26 10:12:13;;;;;;;0.30;0.30;;;;;;;8.32;100.00;99497.31;5093710;28;20024;-55
2023/10/26 10:14:57;;;;;;;0.20;0.20;;;;;;;8.31;100.00;99492.16;5093475;28;20031;-56
2023/10/26 10:17:43;;;;;;;0.30;0.30;;;;;;;8.38;100.00;99509.41;5092153;28;20107;-56
2023/10/26 10:20:14;;;;;;;0.30;0.30;;;;;;;8.27;100.00;99508.34;5093033;28;20028;-57
2023/10/26 10:22:40;;;;;;;0.20;0.20;;;;;;;8.23;100.00;99492.03;5093407;28;20032;-57
2023/10/26 10:25:10;;;;;;;0.30;0.30;;;;;;;8.30;100.00;99496.44;5092395;28;20360;-55
2023/10/26 10:27:36;;;;;;;0.25;0.25;;;;;;;8.39;100.00;99481.19;5093060;28;20036;-55
2023/10/26 10:30:07;;;;;;;0.30;0.30;;;;;;;8.44;100.00;99477.81;5093163;28;20154;-55
2023/10/26 10:32:42;;;;;;;0.30;0.30;;;;;;;8.50;100.00;99468.53;5092702;28;20544;-55
2023/10/26 10:35:09;;;;;;;0.20;0.20;;;;;;;8.66;100.00;99466.22;5092910;28;20375;-55
2023/10/26 10:37:34;;;;;;;0.30;0.30;;;;;;;8.80;100.00;99466.41;5091885;28;20371;-55
2023/10/26 10:40:11;;;;;;;0.30;0.30;;;;;;;8.87;100.00;99463.97;5093075;28;20476;-55
2023/10/26 10:42:50;;;;;;;0.20;0.20;;;;;;;8.79;100.00;99463.00;5092673;28;20062;-58
2023/10/26 10:45:19;;;;;;;0.30;0.30;;;;;;;8.76;100.00;99460.38;5092376;28;20020;-56
2023/10/26 10:47:49;;;;;;;0.20;0.20;;;;;;;8.83;100.00;99459.63;5092952;28;20031;-54
2023/10/26 10:50:22;;;;;;;0.20;0.20;;;;;;;9.06;100.00;99465.09;5092666;28;20077;-56
2023/10/26 10:52:48;;;;;;;0.30;0.30;;;;;;;9.13;100.00;99458.31;5092460;28;20024;-56
2023/10/26 10:55:30;;;;;;;0.20;0.20;;;;;;;9.28;100.00;99459.34;5096951;28;20084;-56
2023/10/26 10:58:00;;;;;;;0.30;0.30;;;;;;;9.21;100.00;99464.41;5097114;28;20053;-57
2023/10/26 11:00:28;;;;;;;0.20;0.20;;;;;;;9.24;100.00;99450.72;5095901;28;20142;-57
2023/10/26 11:02:59;;;;;;;0.30;0.30;;;;;;;9.32;100.00;99443.09;5096879;28;20028;-57
2023/10/26 11:05:39;;;;;;;0.20;0.20;;;;;;;9.47;100.00;99435.56;5095681;28;20460;-56
2023/10/26 11:08:08;;;;;;;0.20;0.20;;;;;;;9.61;100.00;99437.44;5096986;28;20024;-57
2023/10/26 11:10:34;;;;;;;0.20;0.20;;;;;;;9.79;100.00;99442.78;5096254;28;20372;-57
2023/10/26 11:13:00;;;;;;;0.20;0.20;;;;;;;9.89;100.00;99448.91;5095968;28;20027;-57
2023/10/26 11:15:38;;;;;;;0.20;0.20;;;;;;;10.14;100.00;99449.97;5096378;28;20024;-56
2023/10/26 11:18:06;;;;;;;0.20;0.20;;;;;;;10.05;100.00;99442.16;5096396;28;20019;-57
2023/10/26 11:20:43;;;;;;;0.20;0.20;;;;;;;10.15;100.00;99446.53;5095701;28;20035;-57
2023/10/26 11:23:10;;;;;;;0.20;0.20;;;;;;;10.04;100.00;99453.31;5096518;28;20024;-57
2023/10/26 11:25:36;;;;;;;0.20;0.20;;;;;;;10.01;100.00;99445.56;5096334;28;20061;-56
2023/10/26 11:28:02;;;;;;;0.20;0.20;;;;;;;10.17;100.00;99447.44;5095672;28;20420;-56
2023/10/26 11:30:27;;;;;;;0.20;0.20;;;;;;;10.35;100.00;99440.69;5095975;28;20425;-56
2023/10/26 11:32:53;;;;;;;0.20;0.20;;;;;;;10.26;100.00;99441.47;5096514;28;20028;-56